sensor_id;sensor_type;location;lat;lon;timestamp;pressure;altitude;pressure_sealevel;temperature;humidity
57644;BME280;43474;46.510;6.686;2023-12-20T00:01:01;96875.19;;;3.28;100.00
57644;BME280;43474;46.510;6.686;2023-12-20T00:03:41;96886.59;;;3.35;100.00
57644;BME280;43474;46.510;6.686;2023-12-20T00:06:07;96907.47;;;3.43;100.00
57644;BME280;43474;46.510;6.686;2023-12-20T00:08:33;96894.38;;;3.43;100.00
57644;BME280;43474;46.510;6.686;2023-12-20T00:10:58;96855.88;;;3.14;100.00
57644;BME280;43474;46.510;6.686;2023-12-20T00:13:24;96896.00;;;3.44;100.00
57644;BME280;43474;46.510;6.686;2023-12-20T00:15:50;96875.09;;;3.21;100.00
57644;BME280;43474;46.510;6.686;2023-12-20T00:18:15;96903.13;;;3.35;100.00
57644;BME280;43474;46.510;6.686;2023-12-20T00:20:41;96862.53;;;3.17;100.00
57644;BME280;43474;46.510;6.686;2023-12-20T00:23:07;96856.78;;;3.21;100.00
57644;BME280;43474;46.510;6.686;2023-12-20T00:25:34;96881.97;;;3.37;100.00
57644;BME280;43474;46.510;6.686;2023-12-20T00:28:00;96895.88;;;3.37;100.00
57644;BME280;43474;46.510;6.686;2023-12-20T00:30:26;96853.50;;;3.04;100.00
57644;BME280;43474;46.510;6.686;2023-12-20T00:32:51;96891.19;;;3.33;100.00
57644;BME280;43474;46.510;6.686;2023-12-20T00:35:18;96893.72;;;3.26;100.00
57644;BME280;43474;46.510;6.686;2023-12-20T00:37:44;96886.47;;;3.14;100.00
57644;BME280;43474;46.510;6.686;2023-12-20T00:40:10;96847.00;;;3.00;100.00
57644;BME280;43474;46.510;6.686;2023-12-20T00:42:36;96849.28;;;3.03;100.00
57644;BME280;43474;46.510;6.686;2023-12-20T00:45:02;96864.88;;;3.11;100.00
57644;BME280;43474;46.510;6.686;2023-12-20T00:47:30;96868.16;;;3.14;100.00
57644;BME280;43474;46.510;6.686;2023-12-20T00:49:56;96908.56;;;3.34;100.00
57644;BME280;43474;46.510;6.686;2023-12-20T00:52:22;96878.16;;;3.10;100.00
57644;BME280;43474;46.510;6.686;2023-12-20T00:54:48;96901.94;;;3.38;100.00
57644;BME280;43474;46.510;6.686;2023-12-20T00:57:14;96876.66;;;3.30;100.00
57644;BME280;43474;46.510;6.686;2023-12-20T00:59:40;96897.28;;;3.48;100.00
57644;BME280;43474;46.510;6.686;2023-12-20T01:02:05;96868.16;;;3.28;100.00
57644;BME280;43474;46.510;6.686;2023-12-20T01:04:31;96886.69;;;3.42;100.00
57644;BME280;43474;46.510;6.686;2023-12-20T01:06:56;96838.50;;;3.13;100.00
57644;BME280;43474;46.510;6.686;2023-12-20T01:09:22;96859.94;;;3.17;100.00
57644;BME280;43474;46.510;6.686;2023-12-20T01:11:52;96876.72;;;3.22;100.00
57644;BME280;43474;46.510;6.686;2023-12-20T01:14:18;96881.34;;;3.35;100.00
57644;BME280;43474;46.510;6.686;2023-12-20T01:16:43;96900.78;;;3.55;100.00
57644;BME280;43474;46.510;6.686;2023-12-20T01:19:09;96897.72;;;3.52;100.00
57644;BME280;43474;46.510;6.686;2023-12-20T01:21:35;96898.50;;;3.52;100.00
57644;BME280;43474;46.510;6.686;2023-12-20T01:24:01;96895.53;;;3.70;100.00
57644;BME280;43474;46.510;6.686;2023-12-20T01:26:26;96853.44;;;3.57;100.00
57644;BME280;43474;46.510;6.686;2023-12-20T01:28:53;96862.91;;;3.58;100.00
57644;BME280;43474;46.510;6.686;2023-12-20T01:31:18;96872.69;;;3.64;100.00
57644;BME280;43474;46.510;6.686;2023-12-20T01:33:44;96859.31;;;3.59;100.00
57644;BME280;43474;46.510;6.686;2023-12-20T01:36:10;96852.53;;;3.50;100.00
57644;BME280;43474;46.510;6.686;2023-12-20T01:38:37;96892.94;;;3.70;100.00
57644;BME280;43474;46.510;6.686;2023-12-20T01:41:02;96895.34;;;3.72;100.00
57644;BME280;43474;46.510;6.686;2023-12-20T01:43:29;96854.25;;;3.57;100.00
57644;BME280;43474;46.510;6.686;2023-12-20T01:45:57;96871.59;;;3.73;100.00
57644;BME280;43474;46.510;6.686;2023-12-20T01:48:24;96892.47;;;3.81;100.00
57644;BME280;43474;46.510;6.686;2023-12-20T01:50:50;96885.25;;;3.83;100.00
57644;BME280;43474;46.510;6.686;2023-12-20T01:53:17;96892.72;;;3.86;100.00
57644;BME280;43474;46.510;6.686;2023-12-20T01:55:44;96886.88;;;3.84;100.00
57644;BME280;43474;46.510;6.686;2023-12-20T01:58:11;96899.50;;;3.96;100.00
57644;BME280;43474;46.510;6.686;2023-12-20T02:00:37;96863.28;;;3.70;100.00
57644;BME280;43474;46.510;6.686;2023-12-20T02:03:04;96916.22;;;4.09;100.00
57644;BME280;43474;46.510;6.686;2023-12-20T02:05:30;96882.25;;;3.86;100.00
57644;BME280;43474;46.510;6.686;2023-12-20T02:07:57;96912.13;;;4.07;100.00
57644;BME280;43474;46.510;6.686;2023-12-20T02:10:23;96908.81;;;4.13;100.00
57644;BME280;43474;46.510;6.686;2023-12-20T02:12:49;96861.09;;;3.88;100.00
57644;BME280;43474;46.510;6.686;2023-12-20T02:15:15;96905.50;;;4.26;100.00
57644;BME280;43474;46.510;6.686;2023-12-20T02:17:41;96899.38;;;4.19;100.00
57644;BME280;43474;46.510;6.686;2023-12-20T02:20:07;96902.06;;;4.25;100.00
57644;BME280;43474;46.510;6.686;2023-12-20T02:22:33;96901.00;;;4.20;100.00
57644;BME280;43474;46.510;6.686;2023-12-20T02:24:58;96911.84;;;4.17;100.00
57644;BME280;43474;46.510;6.686;2023-12-20T02:27:24;96912.06;;;4.15;100.00
57644;BME280;43474;46.510;6.686;2023-12-20T02:29:50;96920.81;;;4.07;100.00
57644;BME280;43474;46.510;6.686;2023-12-20T02:32:17;96919.03;;;4.08;100.00
57644;BME280;43474;46.510;6.686;2023-12-20T02:34:43;96918.59;;;4.04;100.00
57644;BME280;43474;46.510;6.686;2023-12-20T02:37:08;96917.50;;;4.13;100.00
57644;BME280;43474;46.510;6.686;2023-12-20T02:39:34;96902.59;;;3.99;100.00
57644;BME280;43474;46.510;6.686;2023-12-20T02:42:00;96922.09;;;4.11;100.00
57644;BME280;43474;46.510;6.686;2023-12-20T02:44:25;96910.16;;;4.09;100.00
57644;BME280;43474;46.510;6.686;2023-12-20T02:46:51;96907.00;;;4.13;100.00
57644;BME280;43474;46.510;6.686;2023-12-20T02:49:17;96896.25;;;4.08;100.00
57644;BME280;43474;46.510;6.686;2023-12-20T02:51:42;96903.09;;;4.09;100.00
57644;BME280;43474;46.510;6.686;2023-12-20T02:54:08;96887.91;;;4.05;100.00
57644;BME280;43474;46.510;6.686;2023-12-20T02:56:34;96893.78;;;4.07;100.00
57644;BME280;43474;46.510;6.686;2023-12-20T02:58:59;96898.66;;;4.10;100.00
57644;BME280;43474;46.510;6.686;2023-12-20T03:01:27;96882.59;;;4.13;100.00
57644;BME280;43474;46.510;6.686;2023-12-20T03:03:53;96878.31;;;4.12;100.00
57644;BME280;43474;46.510;6.686;2023-12-20T03:06:19;96889.44;;;4.14;100.00
57644;BME280;43474;46.510;6.686;2023-12-20T03:08:45;96877.59;;;4.18;100.00
57644;BME280;43474;46.510;6.686;2023-12-20T03:11:11;96859.16;;;3.97;100.00
57644;BME280;43474;46.510;6.686;2023-12-20T03:13:36;96844.25;;;3.97;100.00
57644;BME280;43474;46.510;6.686;2023-12-20T03:16:12;96879.75;;;4.14;100.00
57644;BME280;43474;46.510;6.686;2023-12-20T03:18:39;96870.44;;;4.12;100.00
57644;BME280;43474;46.510;6.686;2023-12-20T03:21:05;96878.50;;;4.10;100.00
57644;BME280;43474;46.510;6.686;2023-12-20T03:23:31;96873.06;;;4.12;100.00
57644;BME280;43474;46.510;6.686;2023-12-20T03:25:58;96877.88;;;4.08;100.00
57644;BME280;43474;46.510;6.686;2023-12-20T03:28:24;96883.47;;;4.05;100.00
57644;BME280;43474;46.510;6.686;2023-12-20T03:30:50;96873.47;;;3.94;100.00
57644;BME280;43474;46.510;6.686;2023-12-20T03:33:15;96896.50;;;4.13;100.00
57644;BME280;43474;46.510;6.686;2023-12-20T03:35:41;96886.91;;;4.06;100.00
57644;BME280;43474;46.510;6.686;2023-12-20T03:38:07;96870.22;;;3.92;100.00
57644;BME280;43474;46.510;6.686;2023-12-20T03:40:33;96897.06;;;4.09;100.00
57644;BME280;43474;46.510;6.686;2023-12-20T03:42:58;96883.56;;;4.12;100.00
57644;BME280;43474;46.510;6.686;2023-12-20T03:45:24;96884.28;;;4.06;100.00
57644;BME280;43474;46.510;6.686;2023-12-20T03:47:50;96897.22;;;4.07;100.00
57644;BME280;43474;46.510;6.686;2023-12-20T03:50:22;96860.66;;;3.84;100.00
57644;BME280;43474;46.510;6.686;2023-12-20T03:52:48;96893.44;;;4.10;100.00
57644;BME280;43474;46.510;6.686;2023-12-20T03:55:14;96896.06;;;4.10;100.00
57644;BME280;43474;46.510;6.686;2023-12-20T03:57:39;96890.34;;;4.06;100.00
57644;BME280;43474;46.510;6.686;2023-12-20T04:00:08;96898.06;;;4.08;100.00
57644;BME280;43474;46.510;6.686;2023-12-20T04:02:41;96894.25;;;4.10;100.00
57644;BME280;43474;46.510;6.686;2023-12-20T04:05:07;96905.72;;;4.09;100.00
57644;BME280;43474;46.510;6.686;2023-12-20T04:07:33;96899.47;;;4.10;100.00
57644;BME280;43474;46.510;6.686;2023-12-20T04:09:59;96899.84;;;4.07;100.00
57644;BME280;43474;46.510;6.686;2023-12-20T04:12:25;96895.25;;;4.09;100.00
57644;BME280;43474;46.510;6.686;2023-12-20T04:14:52;96889.44;;;4.14;100.00
57644;BME280;43474;46.510;6.686;2023-12-20T04:17:17;96889.00;;;4.10;100.00
57644;BME280;43474;46.510;6.686;2023-12-20T04:19:43;96869.22;;;3.93;100.00
57644;BME280;43474;46.510;6.686;2023-12-20T04:22:09;96879.03;;;4.21;100.00
57644;BME280;43474;46.510;6.686;2023-12-20T04:24:36;96878.25;;;4.05;100.00
57644;BME280;43474;46.510;6.686;2023-12-20T04:27:02;96851.94;;;3.99;100.00
57644;BME280;43474;46.510;6.686;2023-12-20T04:29:28;96873.78;;;4.21;100.00
57644;BME280;43474;46.510;6.686;2023-12-20T04:31:53;96880.28;;;4.25;100.00
57644;BME280;43474;46.510;6.686;2023-12-20T04:34:20;96885.97;;;4.28;100.00
57644;BME280;43474;46.510;6.686;2023-12-20T04:36:46;96896.38;;;4.22;100.00
57644;BME280;43474;46.510;6.686;2023-12-20T04:39:13;96886.00;;;4.13;100.00
57644;BME280;43474;46.510;6.686;2023-12-20T04:41:38;96892.44;;;4.11;100.00
57644;BME280;43474;46.510;6.686;2023-12-20T04:44:05;96895.31;;;4.16;100.00
57644;BME280;43474;46.510;6.686;2023-12-20T04:46:31;96898.13;;;4.14;100.00
57644;BME280;43474;46.510;6.686;2023-12-20T04:48:57;96889.44;;;4.14;100.00
57644;BME280;43474;46.510;6.686;2023-12-20T04:51:23;96894.50;;;4.15;100.00
57644;BME280;43474;46.510;6.686;2023-12-20T04:53:49;96893.44;;;4.10;100.00
57644;BME280;43474;46.510;6.686;2023-12-20T04:56:14;96902.97;;;4.18;100.00
57644;BME280;43474;46.510;6.686;2023-12-20T04:58:40;96900.81;;;4.21;100.00
57644;BME280;43474;46.510;6.686;2023-12-20T05:01:06;96901.63;;;4.22;100.00
57644;BME280;43474;46.510;6.686;2023-12-20T05:03:32;96897.28;;;4.29;100.00
57644;BME280;43474;46.510;6.686;2023-12-20T05:05:58;96894.94;;;4.19;100.00
57644;BME280;43474;46.510;6.686;2023-12-20T05:08:24;96912.94;;;4.22;100.00
57644;BME280;43474;46.510;6.686;2023-12-20T05:10:51;96881.88;;;4.04;100.00
57644;BME280;43474;46.510;6.686;2023-12-20T05:13:17;96913.84;;;4.29;100.00
57644;BME280;43474;46.510;6.686;2023-12-20T05:15:43;96895.25;;;4.09;100.00
57644;BME280;43474;46.510;6.686;2023-12-20T05:18:08;96907.63;;;4.15;100.00
57644;BME280;43474;46.510;6.686;2023-12-20T05:20:34;96900.94;;;4.13;100.00
57644;BME280;43474;46.510;6.686;2023-12-20T05:23:00;96924.69;;;4.26;100.00
57644;BME280;43474;46.510;6.686;2023-12-20T05:25:25;96924.25;;;4.23;100.00
57644;BME280;43474;46.510;6.686;2023-12-20T05:27:51;96924.06;;;4.24;100.00
57644;BME280;43474;46.510;6.686;2023-12-20T05:30:16;96924.16;;;4.16;100.00
57644;BME280;43474;46.510;6.686;2023-12-20T05:32:42;96919.97;;;4.22;100.00
57644;BME280;43474;46.510;6.686;2023-12-20T05:35:08;96925.69;;;4.25;100.00
57644;BME280;43474;46.510;6.686;2023-12-20T05:37:33;96936.38;;;4.24;100.00
57644;BME280;43474;46.510;6.686;2023-12-20T05:39:59;96958.97;;;4.25;100.00
57644;BME280;43474;46.510;6.686;2023-12-20T05:42:25;96956.91;;;4.20;100.00
57644;BME280;43474;46.510;6.686;2023-12-20T05:44:50;96948.69;;;4.08;100.00
57644;BME280;43474;46.510;6.686;2023-12-20T05:47:16;96967.19;;;4.22;100.00
57644;BME280;43474;46.510;6.686;2023-12-20T05:49:42;96968.19;;;4.21;100.00
57644;BME280;43474;46.510;6.686;2023-12-20T05:52:08;96951.84;;;4.19;100.00
57644;BME280;43474;46.510;6.686;2023-12-20T05:54:33;96953.72;;;4.25;100.00
57644;BME280;43474;46.510;6.686;2023-12-20T05:56:59;96941.50;;;4.32;100.00
57644;BME280;43474;46.510;6.686;2023-12-20T05:59:26;96950.38;;;4.31;100.00
57644;BME280;43474;46.510;6.686;2023-12-20T06:01:52;96954.53;;;4.25;100.00
57644;BME280;43474;46.510;6.686;2023-12-20T06:04:17;96911.19;;;3.93;100.00
57644;BME280;43474;46.510;6.686;2023-12-20T06:06:43;96962.41;;;4.25;100.00
57644;BME280;43474;46.510;6.686;2023-12-20T06:09:09;96959.78;;;4.25;100.00
57644;BME280;43474;46.510;6.686;2023-12-20T06:11:35;96943.78;;;4.20;100.00
57644;BME280;43474;46.510;6.686;2023-12-20T06:14:00;96963.03;;;4.27;100.00
57644;BME280;43474;46.510;6.686;2023-12-20T06:16:26;96956.72;;;4.22;100.00
57644;BME280;43474;46.510;6.686;2023-12-20T06:18:52;96954.72;;;4.24;100.00
57644;BME280;43474;46.510;6.686;2023-12-20T06:21:18;96968.28;;;4.27;100.00
57644;BME280;43474;46.510;6.686;2023-12-20T06:23:43;96942.25;;;4.11;100.00
57644;BME280;43474;46.510;6.686;2023-12-20T06:26:09;96971.47;;;4.23;100.00
57644;BME280;43474;46.510;6.686;2023-12-20T06:28:35;96973.44;;;4.21;100.00
57644;BME280;43474;46.510;6.686;2023-12-20T06:31:01;96972.91;;;4.25;100.00
57644;BME280;43474;46.510;6.686;2023-12-20T06:33:26;96967.03;;;4.23;100.00
57644;BME280;43474;46.510;6.686;2023-12-20T06:35:52;96944.69;;;4.12;100.00
57644;BME280;43474;46.510;6.686;2023-12-20T06:38:18;96927.53;;;3.95;100.00
57644;BME280;43474;46.510;6.686;2023-12-20T06:40:44;96931.44;;;3.99;100.00
57644;BME280;43474;46.510;6.686;2023-12-20T06:43:12;96958.00;;;4.11;100.00
57644;BME280;43474;46.510;6.686;2023-12-20T06:45:37;96981.78;;;4.24;100.00
57644;BME280;43474;46.510;6.686;2023-12-20T06:48:03;96940.44;;;3.97;100.00
57644;BME280;43474;46.510;6.686;2023-12-20T06:50:29;96977.28;;;4.18;100.00
57644;BME280;43474;46.510;6.686;2023-12-20T06:52:55;96960.34;;;4.21;100.00
57644;BME280;43474;46.510;6.686;2023-12-20T06:55:20;96979.88;;;4.33;100.00
57644;BME280;43474;46.510;6.686;2023-12-20T06:57:46;96981.66;;;4.32;100.00
57644;BME280;43474;46.510;6.686;2023-12-20T07:00:12;96982.03;;;4.29;100.00
57644;BME280;43474;46.510;6.686;2023-12-20T07:02:38;96968.00;;;4.22;100.00
57644;BME280;43474;46.510;6.686;2023-12-20T07:05:04;96973.25;;;4.37;100.00
57644;BME280;43474;46.510;6.686;2023-12-20T07:07:30;96977.13;;;4.41;100.00
57644;BME280;43474;46.510;6.686;2023-12-20T07:09:55;96975.88;;;4.37;100.00
57644;BME280;43474;46.510;6.686;2023-12-20T07:12:21;96966.50;;;4.28;100.00
57644;BME280;43474;46.510;6.686;2023-12-20T07:14:47;96986.34;;;4.37;100.00
57644;BME280;43474;46.510;6.686;2023-12-20T07:17:13;96984.75;;;4.36;100.00
57644;BME280;43474;46.510;6.686;2023-12-20T07:19:41;96992.59;;;4.36;100.00
57644;BME280;43474;46.510;6.686;2023-12-20T07:22:07;96993.63;;;4.35;100.00
57644;BME280;43474;46.510;6.686;2023-12-20T07:24:33;96981.66;;;4.32;100.00
57644;BME280;43474;46.510;6.686;2023-12-20T07:26:59;96984.28;;;4.32;100.00
57644;BME280;43474;46.510;6.686;2023-12-20T07:29:26;96996.97;;;4.44;100.00
57644;BME280;43474;46.510;6.686;2023-12-20T07:31:52;96997.97;;;4.43;100.00
57644;BME280;43474;46.510;6.686;2023-12-20T07:34:20;96994.06;;;4.38;100.00
57644;BME280;43474;46.510;6.686;2023-12-20T07:36:46;97012.69;;;4.44;100.00
57644;BME280;43474;46.510;6.686;2023-12-20T07:39:14;97010.25;;;4.42;100.00
57644;BME280;43474;46.510;6.686;2023-12-20T07:41:39;97014.78;;;4.48;100.00
57644;BME280;43474;46.510;6.686;2023-12-20T07:44:06;96997.13;;;4.42;100.00
57644;BME280;43474;46.510;6.686;2023-12-20T07:46:32;97010.97;;;4.51;100.00
57644;BME280;43474;46.510;6.686;2023-12-20T07:48:57;97033.22;;;4.55;100.00
57644;BME280;43474;46.510;6.686;2023-12-20T07:51:23;97025.69;;;4.52;100.00
57644;BME280;43474;46.510;6.686;2023-12-20T07:53:49;97020.19;;;4.47;100.00
57644;BME280;43474;46.510;6.686;2023-12-20T07:56:18;97036.03;;;4.53;100.00
57644;BME280;43474;46.510;6.686;2023-12-20T07:58:45;97032.88;;;4.58;100.00
57644;BME280;43474;46.510;6.686;2023-12-20T08:01:11;97035.31;;;4.59;100.00
57644;BME280;43474;46.510;6.686;2023-12-20T08:03:38;97029.78;;;4.54;100.00
57644;BME280;43474;46.510;6.686;2023-12-20T08:06:04;97043.19;;;4.59;100.00
57644;BME280;43474;46.510;6.686;2023-12-20T08:08:30;97032.75;;;4.66;100.00
57644;BME280;43474;46.510;6.686;2023-12-20T08:10:56;97045.38;;;4.77;100.00
57644;BME280;43474;46.510;6.686;2023-12-20T08:13:24;97043.66;;;4.84;100.00
57644;BME280;43474;46.510;6.686;2023-12-20T08:15:52;97040.09;;;4.92;100.00
57644;BME280;43474;46.510;6.686;2023-12-20T08:18:17;97023.53;;;4.91;100.00
57644;BME280;43474;46.510;6.686;2023-12-20T08:20:43;97024.69;;;5.04;100.00
57644;BME280;43474;46.510;6.686;2023-12-20T08:23:09;97025.31;;;5.06;100.00
57644;BME280;43474;46.510;6.686;2023-12-20T08:25:35;97015.91;;;4.97;100.00
57644;BME280;43474;46.510;6.686;2023-12-20T08:28:02;96999.06;;;4.70;100.00
57644;BME280;43474;46.510;6.686;2023-12-20T08:30:28;97048.25;;;4.97;100.00
57644;BME280;43474;46.510;6.686;2023-12-20T08:32:55;97045.00;;;4.95;100.00
57644;BME280;43474;46.510;6.686;2023-12-20T08:35:20;97050.59;;;4.92;100.00
57644;BME280;43474;46.510;6.686;2023-12-20T08:37:46;97050.06;;;4.97;100.00
57644;BME280;43474;46.510;6.686;2023-12-20T08:40:12;97032.63;;;4.89;100.00
57644;BME280;43474;46.510;6.686;2023-12-20T08:42:38;97039.03;;;4.86;100.00
57644;BME280;43474;46.510;6.686;2023-12-20T08:45:04;97068.59;;;5.10;100.00
57644;BME280;43474;46.510;6.686;2023-12-20T08:47:30;97044.59;;;5.13;100.00
57644;BME280;43474;46.510;6.686;2023-12-20T08:49:55;97054.66;;;5.31;100.00
57644;BME280;43474;46.510;6.686;2023-12-20T08:52:24;97060.25;;;5.42;100.00
57644;BME280;43474;46.510;6.686;2023-12-20T08:54:50;97074.00;;;5.66;100.00
57644;BME280;43474;46.510;6.686;2023-12-20T08:57:22;97064.97;;;5.75;100.00
57644;BME280;43474;46.510;6.686;2023-12-20T08:59:51;97066.22;;;5.79;100.00
57644;BME280;43474;46.510;6.686;2023-12-20T09:02:17;97065.28;;;5.87;100.00
57644;BME280;43474;46.510;6.686;2023-12-20T09:04:42;97038.78;;;5.88;100.00
57644;BME280;43474;46.510;6.686;2023-12-20T09:07:24;97058.22;;;6.15;100.00
57644;BME280;43474;46.510;6.686;2023-12-20T09:09:51;97055.81;;;6.20;100.00
57644;BME280;43474;46.510;6.686;2023-12-20T09:12:18;97056.84;;;6.26;100.00
57644;BME280;43474;46.510;6.686;2023-12-20T09:14:45;97051.34;;;6.21;100.00
57644;BME280;43474;46.510;6.686;2023-12-20T09:17:12;97063.94;;;6.26;100.00
57644;BME280;43474;46.510;6.686;2023-12-20T09:19:37;97025.22;;;6.13;100.00
57644;BME280;43474;46.510;6.686;2023-12-20T09:22:04;97065.41;;;6.35;100.00
57644;BME280;43474;46.510;6.686;2023-12-20T09:24:30;97037.69;;;6.32;100.00
57644;BME280;43474;46.510;6.686;2023-12-20T09:26:56;97057.97;;;6.45;100.00
57644;BME280;43474;46.510;6.686;2023-12-20T09:29:22;97053.72;;;6.44;100.00
57644;BME280;43474;46.510;6.686;2023-12-20T09:31:48;97044.81;;;6.45;100.00
57644;BME280;43474;46.510;6.686;2023-12-20T09:34:15;97043.66;;;6.54;100.00
57644;BME280;43474;46.510;6.686;2023-12-20T09:36:41;97042.63;;;6.55;100.00
57644;BME280;43474;46.510;6.686;2023-12-20T09:39:13;97044.13;;;6.71;100.00
57644;BME280;43474;46.510;6.686;2023-12-20T09:41:43;96998.28;;;6.52;100.00
57644;BME280;43474;46.510;6.686;2023-12-20T09:44:14;97034.66;;;6.83;100.00
57644;BME280;43474;46.510;6.686;2023-12-20T09:46:43;97014.38;;;6.77;100.00
57644;BME280;43474;46.510;6.686;2023-12-20T09:49:10;97053.38;;;7.08;100.00
57644;BME280;43474;46.510;6.686;2023-12-20T09:51:36;97031.66;;;6.99;100.00
57644;BME280;43474;46.510;6.686;2023-12-20T09:54:05;97004.50;;;6.92;100.00
57644;BME280;43474;46.510;6.686;2023-12-20T09:56:31;97034.97;;;7.35;100.00
57644;BME280;43474;46.510;6.686;2023-12-20T09:58:57;97048.59;;;7.58;100.00
57644;BME280;43474;46.510;6.686;2023-12-20T10:01:23;97032.94;;;7.30;100.00
57644;BME280;43474;46.510;6.686;2023-12-20T10:03:51;97034.38;;;7.26;100.00
57644;BME280;43474;46.510;6.686;2023-12-20T10:06:20;97028.06;;;7.20;100.00
57644;BME280;43474;46.510;6.686;2023-12-20T10:08:46;97032.13;;;7.23;100.00
57644;BME280;43474;46.510;6.686;2023-12-20T10:11:12;97007.56;;;7.09;100.00
57644;BME280;43474;46.510;6.686;2023-12-20T10:13:41;97029.13;;;7.46;100.00
57644;BME280;43474;46.510;6.686;2023-12-20T10:16:07;97038.06;;;7.58;100.00
57644;BME280;43474;46.510;6.686;2023-12-20T10:18:33;97024.25;;;7.49;100.00
57644;BME280;43474;46.510;6.686;2023-12-20T10:21:00;97022.63;;;7.48;100.00
57644;BME280;43474;46.510;6.686;2023-12-20T10:23:25;97022.25;;;7.51;100.00
57644;BME280;43474;46.510;6.686;2023-12-20T10:25:59;96997.50;;;7.46;100.00
57644;BME280;43474;46.510;6.686;2023-12-20T10:28:25;96994.44;;;7.62;100.00
57644;BME280;43474;46.510;6.686;2023-12-20T10:30:54;97010.25;;;7.82;100.00
57644;BME280;43474;46.510;6.686;2023-12-20T10:33:27;96999.47;;;8.03;100.00
57644;BME280;43474;46.510;6.686;2023-12-20T10:35:55;96989.31;;;8.07;100.00
57644;BME280;43474;46.510;6.686;2023-12-20T10:38:21;96992.56;;;8.16;100.00
57644;BME280;43474;46.510;6.686;2023-12-20T10:40:48;96988.91;;;8.03;100.00
57644;BME280;43474;46.510;6.686;2023-12-20T10:43:15;96994.41;;;8.02;100.00
57644;BME280;43474;46.510;6.686;2023-12-20T10:45:43;97000.06;;;8.12;100.00
57644;BME280;43474;46.510;6.686;2023-12-20T10:48:10;96983.28;;;9.03;100.00
57644;BME280;43474;46.510;6.686;2023-12-20T10:50:37;96984.75;;;9.30;100.00
57644;BME280;43474;46.510;6.686;2023-12-20T10:53:04;96983.34;;;9.78;100.00
57644;BME280;43474;46.510;6.686;2023-12-20T10:55:33;96980.31;;;9.74;100.00
57644;BME280;43474;46.510;6.686;2023-12-20T10:58:01;96980.47;;;10.04;100.00
57644;BME280;43474;46.510;6.686;2023-12-20T11:00:29;96976.94;;;10.47;100.00
57644;BME280;43474;46.510;6.686;2023-12-20T11:03:00;96964.81;;;10.88;100.00
57644;BME280;43474;46.510;6.686;2023-12-20T11:05:46;96963.97;;;11.06;100.00
57644;BME280;43474;46.510;6.686;2023-12-20T11:08:22;96958.13;;;11.27;100.00
57644;BME280;43474;46.510;6.686;2023-12-20T11:10:59;96954.72;;;11.08;100.00
57644;BME280;43474;46.510;6.686;2023-12-20T11:13:40;96949.50;;;10.90;100.00
57644;BME280;43474;46.510;6.686;2023-12-20T11:16:06;96917.41;;;10.50;100.00
57644;BME280;43474;46.510;6.686;2023-12-20T11:18:33;96941.25;;;10.50;100.00
57644;BME280;43474;46.510;6.686;2023-12-20T11:21:04;96955.41;;;9.82;100.00
57644;BME280;43474;46.510;6.686;2023-12-20T11:23:32;96959.75;;;9.51;100.00
57644;BME280;43474;46.510;6.686;2023-12-20T11:25:59;96961.91;;;9.61;100.00
57644;BME280;43474;46.510;6.686;2023-12-20T11:28:26;96957.59;;;9.67;100.00
57644;BME280;43474;46.510;6.686;2023-12-20T11:30:54;96927.13;;;9.07;100.00
57644;BME280;43474;46.510;6.686;2023-12-20T11:33:39;96950.09;;;9.07;100.00
57644;BME280;43474;46.510;6.686;2023-12-20T11:36:18;96956.28;;;8.56;100.00
57644;BME280;43474;46.510;6.686;2023-12-20T11:39:04;96928.97;;;8.69;100.00
57644;BME280;43474;46.510;6.686;2023-12-20T11:41:34;96921.03;;;9.07;100.00
57644;BME280;43474;46.510;6.686;2023-12-20T11:43:59;96940.09;;;9.16;100.00
57644;BME280;43474;46.510;6.686;2023-12-20T11:46:26;96944.97;;;9.87;100.00
57644;BME280;43474;46.510;6.686;2023-12-20T11:48:52;96945.25;;;10.41;100.00
57644;BME280;43474;46.510;6.686;2023-12-20T11:51:18;96930.28;;;10.46;100.00
57644;BME280;43474;46.510;6.686;2023-12-20T11:53:43;96897.41;;;11.07;100.00
57644;BME280;43474;46.510;6.686;2023-12-20T11:56:10;96925.25;;;11.17;100.00
57644;BME280;43474;46.510;6.686;2023-12-20T11:58:36;96898.69;;;11.05;100.00
57644;BME280;43474;46.510;6.686;2023-12-20T12:01:02;96921.03;;;11.62;100.00
57644;BME280;43474;46.510;6.686;2023-12-20T12:03:29;96927.50;;;12.02;100.00
57644;BME280;43474;46.510;6.686;2023-12-20T12:05:56;96922.69;;;11.99;100.00
57644;BME280;43474;46.510;6.686;2023-12-20T12:08:21;96920.88;;;12.39;100.00
57644;BME280;43474;46.510;6.686;2023-12-20T12:10:47;96907.91;;;12.43;100.00
57644;BME280;43474;46.510;6.686;2023-12-20T12:13:13;96914.69;;;12.10;100.00
57644;BME280;43474;46.510;6.686;2023-12-20T12:15:40;96869.56;;;11.52;100.00
57644;BME280;43474;46.510;6.686;2023-12-20T12:18:08;96917.09;;;11.77;100.00
57644;BME280;43474;46.510;6.686;2023-12-20T12:20:34;96922.06;;;12.20;100.00
57644;BME280;43474;46.510;6.686;2023-12-20T12:23:04;96917.81;;;12.19;100.00
57644;BME280;43474;46.510;6.686;2023-12-20T12:25:32;96891.03;;;11.97;100.00
57644;BME280;43474;46.510;6.686;2023-12-20T12:27:59;96907.16;;;12.19;100.00
57644;BME280;43474;46.510;6.686;2023-12-20T12:30:25;96903.47;;;11.73;100.00
57644;BME280;43474;46.510;6.686;2023-12-20T12:32:53;96874.03;;;11.98;100.00
57644;BME280;43474;46.510;6.686;2023-12-20T12:35:19;96902.38;;;12.45;100.00
57644;BME280;43474;46.510;6.686;2023-12-20T12:37:47;96908.97;;;12.30;100.00
57644;BME280;43474;46.510;6.686;2023-12-20T12:40:16;96887.03;;;12.35;100.00
57644;BME280;43474;46.510;6.686;2023-12-20T12:42:44;96897.78;;;12.28;100.00
57644;BME280;43474;46.510;6.686;2023-12-20T12:45:10;96911.56;;;12.13;100.00
57644;BME280;43474;46.510;6.686;2023-12-20T12:47:39;96919.31;;;11.56;100.00
57644;BME280;43474;46.510;6.686;2023-12-20T12:50:06;96913.19;;;11.44;100.00
57644;BME280;43474;46.510;6.686;2023-12-20T12:52:32;96901.22;;;11.00;100.00
57644;BME280;43474;46.510;6.686;2023-12-20T12:54:58;96916.59;;;11.09;100.00
57644;BME280;43474;46.510;6.686;2023-12-20T12:57:23;96899.03;;;10.67;100.00